Terminal Aerodrome Forecast
Issued by NWS Pittsburgh, PA

Current Version | Previous Version | Graphics & Text | Print | Product List | Glossary On
Versions: 1 2 3 4 5 6 7 8 9 10 11 12 13 14 15 16 17 18 19 20 21 22 23 24 25 26 27 28
000
FTUS41 KPBZ 191400 AAA
TAFPIT
TAF AMD
KPIT 191440Z 1915/2018 19007KT P6SM SCT035 BKN100
     FM191700 19011G18KT P6SM -SN OVC050
      TEMPO 1919/1922 5SM -SN OVC030
     FM200300 18009KT 6SM -SN BKN025=

USA.gov is the U.S. government's official web portal to all federal, state and local government web resources and services.